createdAt,value
2019-05-22T00:01:49.969Z,26.27
2019-05-22T00:06:55.395Z,29.40
2019-05-22T00:12:00.672Z,30.70
2019-05-22T00:17:06.527Z,27.87
2019-05-22T00:22:11.744Z,30.47
2019-05-22T00:27:16.894Z,28.17
2019-05-22T00:32:21.087Z,28.90
2019-05-22T00:37:25.754Z,29.27
2019-05-22T00:42:31.932Z,28.07
2019-05-22T00:47:37.162Z,28.23
2019-05-22T00:52:44.870Z,28.37
2019-05-22T00:57:50.730Z,26.40
2019-05-22T01:02:56.234Z,25.00
2019-05-22T01:08:01.515Z,24.27
2019-05-22T01:13:04.982Z,29.40
2019-05-22T01:18:11.503Z,25.63
2019-05-22T01:23:18.869Z,25.30
2019-05-22T01:28:23.979Z,24.07
2019-05-22T01:33:35.218Z,22.60
2019-05-22T01:38:39.132Z,22.40
2019-05-22T01:43:43.729Z,23.37
2019-05-22T01:48:48.627Z,21.17
2019-05-22T01:53:53.986Z,17.17
2019-05-22T01:58:58.211Z,19.37
2019-05-22T02:04:02.079Z,17.97
2019-05-22T02:09:17.542Z,17.83
2019-05-22T02:14:22.293Z,17.40
2019-05-22T02:19:26.487Z,21.47
2019-05-22T02:24:31.667Z,18.63
2019-05-22T02:29:35.549Z,18.10
2019-05-22T02:34:39.074Z,16.37
2019-05-22T02:39:42.921Z,15.30
2019-05-22T02:44:47.338Z,17.93
2019-05-22T02:49:54.367Z,17.00
2019-05-22T02:54:58.128Z,15.73
2019-05-22T03:05:24.989Z,15.37
2019-05-22T03:10:29.253Z,16.53
2019-05-22T03:15:32.767Z,14.73
2019-05-22T03:20:38.040Z,14.50
2019-05-22T03:25:43.588Z,14.67
2019-05-22T03:30:48.093Z,16.30
2019-05-22T03:35:54.581Z,15.83
2019-05-22T03:40:58.545Z,14.40
2019-05-22T03:46:05.093Z,14.30
2019-05-22T03:51:14.871Z,14.43
2019-05-22T03:56:20.373Z,14.17
2019-05-22T04:01:24.176Z,11.50
2019-05-22T04:06:28.595Z,14.50
2019-05-22T04:11:38.688Z,12.83
2019-05-22T04:16:43.746Z,13.47
2019-05-22T04:21:47.547Z,13.40
2019-05-22T04:26:51.149Z,12.57
2019-05-22T04:31:59.327Z,12.07
2019-05-22T04:37:03.270Z,11.03
2019-05-22T04:42:10.623Z,10.93
2019-05-22T04:47:14.794Z,9.27
2019-05-22T04:52:18.556Z,8.87
2019-05-22T04:57:22.014Z,7.43
2019-05-22T05:02:25.645Z,11.40
2019-05-22T05:07:29.760Z,10.70
2019-05-22T05:12:33.359Z,11.13
2019-05-22T05:17:36.961Z,7.27
2019-05-22T05:22:48.381Z,6.57
2019-05-22T05:27:51.988Z,7.47
2019-05-22T05:32:56.626Z,6.87
2019-05-22T05:38:02.508Z,18.43
2019-05-22T05:43:07.297Z,7.70
2019-05-22T05:48:13.778Z,7.03
2019-05-22T05:53:20.311Z,9.23
2019-05-22T05:58:29.782Z,7.83
2019-05-22T06:03:37.431Z,10.23
2019-05-22T06:08:42.363Z,9.37
2019-05-22T06:13:45.951Z,9.53
2019-05-22T06:18:50.954Z,9.87
2019-05-22T06:24:00.514Z,8.93
2019-05-22T06:29:05.740Z,9.83
2019-05-22T06:34:09.326Z,9.00
2019-05-22T06:39:15.659Z,8.40
2019-05-22T06:44:34.136Z,8.60
2019-05-22T06:49:39.699Z,7.60
2019-05-22T06:54:43.607Z,7.10
2019-05-22T06:59:49.130Z,8.33
2019-05-22T07:04:53.045Z,6.50
2019-05-22T07:09:56.637Z,7.00
2019-05-22T07:15:04.282Z,6.20
2019-05-22T07:20:08.799Z,6.27
2019-05-22T07:25:14.299Z,5.90
2019-05-22T07:30:18.391Z,6.33
2019-05-22T07:35:22.384Z,5.77
2019-05-22T07:40:26.457Z,6.47
2019-05-22T07:45:30.468Z,5.93
2019-05-22T07:50:35.753Z,6.30
2019-05-22T07:55:40.241Z,5.30
2019-05-22T08:00:47.859Z,4.90
2019-05-22T08:06:15.510Z,4.80
2019-05-22T08:11:20.160Z,5.67
2019-05-22T08:16:25.149Z,6.00
2019-05-22T08:21:29.720Z,5.37
2019-05-22T08:26:51.613Z,3.97
2019-05-22T08:31:41.108Z,5.50
2019-05-22T08:36:47.532Z,5.73
2019-05-22T08:41:51.401Z,7.67
2019-05-22T08:46:55.439Z,7.00
2019-05-22T08:52:00.305Z,6.20
2019-05-22T08:57:06.413Z,6.83
2019-05-22T09:02:10.693Z,5.10
2019-05-22T09:07:14.243Z,5.67
2019-05-22T09:12:19.306Z,6.17
2019-05-22T09:17:22.868Z,6.17
2019-05-22T09:22:40.270Z,6.47
2019-05-22T09:27:34.109Z,5.87
2019-05-22T09:32:37.559Z,5.43
2019-05-22T09:37:41.066Z,5.40
2019-05-22T09:42:44.944Z,6.83
2019-05-22T09:47:49.241Z,8.03
2019-05-22T09:52:57.493Z,7.40
2019-05-22T09:57:58.190Z,7.63
2019-05-22T10:03:01.671Z,7.07
2019-05-22T10:08:05.559Z,7.33
2019-05-22T10:13:08.994Z,6.27
2019-05-22T10:18:13.639Z,6.90
2019-05-22T10:23:18.086Z,7.03
2019-05-22T10:28:22.061Z,7.63
2019-05-22T10:33:25.614Z,6.40
2019-05-22T10:38:29.120Z,7.03
2019-05-22T10:43:33.526Z,6.70
2019-05-22T10:48:40.182Z,7.93
2019-05-22T10:53:42.980Z,7.20
2019-05-22T10:58:47.164Z,6.90
2019-05-22T11:03:50.907Z,7.67
2019-05-22T11:08:54.428Z,7.20
2019-05-22T11:14:01.672Z,5.97
2019-05-22T11:19:04.486Z,6.03
2019-05-22T11:24:08.322Z,5.40
2019-05-22T11:29:12.118Z,4.17
2019-05-22T11:34:15.617Z,4.77
2019-05-22T11:39:36.336Z,4.23
2019-05-22T11:44:26.645Z,5.10
2019-05-22T11:49:30.073Z,5.60
2019-05-22T11:54:34.349Z,5.07
2019-05-22T11:59:38.733Z,6.07
2019-05-22T12:04:48.067Z,5.43
2019-05-22T12:09:48.667Z,5.17
2019-05-22T12:14:52.207Z,5.93
2019-05-22T12:19:56.059Z,5.73
2019-05-22T12:24:59.501Z,5.30
2019-05-22T12:30:04.919Z,4.97
2019-05-22T12:35:10.583Z,5.60
2019-05-22T12:40:39.157Z,4.60
2019-05-22T12:45:42.622Z,5.67
2019-05-22T12:50:46.383Z,3.87
2019-05-22T12:55:50.362Z,5.23
2019-05-22T13:00:54.559Z,4.77
2019-05-22T13:05:58.428Z,5.57
2019-05-22T13:11:05.263Z,5.47
2019-05-22T13:16:09.680Z,4.97
2019-05-22T13:21:15.379Z,4.53
2019-05-22T13:26:19.331Z,4.90
2019-05-22T13:31:23.834Z,4.23
2019-05-22T13:36:27.295Z,5.10
2019-05-22T13:41:31.036Z,5.07
2019-05-22T13:46:35.349Z,5.13
2019-05-22T13:51:40.671Z,4.30
2019-05-22T13:56:45.611Z,4.13
2019-05-22T14:01:50.746Z,4.97
2019-05-22T14:06:55.021Z,4.40
2019-05-22T14:11:58.621Z,3.97
2019-05-22T14:17:02.369Z,4.40
2019-05-22T14:22:06.683Z,4.27
2019-05-22T14:27:10.179Z,3.90
2019-05-22T14:32:14.202Z,2.77
2019-05-22T14:37:17.901Z,3.13
2019-05-22T14:42:22.286Z,3.37
2019-05-22T14:47:25.875Z,4.43
2019-05-22T14:52:29.310Z,3.20
2019-05-22T14:57:33.299Z,3.83
2019-05-22T15:02:36.821Z,3.60
2019-05-22T15:07:40.572Z,4.03
2019-05-22T15:12:44.988Z,4.10
2019-05-22T15:17:48.905Z,3.90
2019-05-22T15:22:55.923Z,2.97
2019-05-22T15:27:58.561Z,3.27
2019-05-22T15:33:02.012Z,3.53
2019-05-22T15:38:05.999Z,3.40
2019-05-22T15:43:11.893Z,2.40
2019-05-22T15:48:18.937Z,3.10
2019-05-22T15:53:23.825Z,2.93
2019-05-22T15:58:29.344Z,2.70
2019-05-22T16:03:36.604Z,2.57
2019-05-22T16:08:40.863Z,3.10
2019-05-22T16:13:46.376Z,2.27
2019-05-22T16:18:52.056Z,3.10
2019-05-22T16:23:56.052Z,2.90
2019-05-22T16:29:01.292Z,2.27
2019-05-22T16:34:06.117Z,2.07
2019-05-22T16:39:11.303Z,2.90
2019-05-22T16:44:17.595Z,3.87
2019-05-22T16:49:22.059Z,2.53
2019-05-22T16:54:25.858Z,2.40
2019-05-22T16:59:29.499Z,2.93
2019-05-22T17:04:33.230Z,2.60
2019-05-22T17:09:39.444Z,2.57
2019-05-22T17:14:45.717Z,3.30
2019-05-22T17:19:50.124Z,2.30
2019-05-22T17:24:53.846Z,2.90
2019-05-22T17:29:57.395Z,2.70
2019-05-22T17:35:02.138Z,2.90
2019-05-22T17:40:08.732Z,2.30
2019-05-22T17:45:13.507Z,3.90
2019-05-22T17:50:26.557Z,3.87
2019-05-22T17:55:25.744Z,3.43
2019-05-22T18:00:49.102Z,3.57
2019-05-22T18:05:53.633Z,3.50
2019-05-22T18:10:58.860Z,3.43
2019-05-22T18:16:04.583Z,3.10
2019-05-22T18:21:10.518Z,3.10
2019-05-22T18:26:13.758Z,3.23
2019-05-22T18:31:17.268Z,3.40
2019-05-22T18:36:20.724Z,3.00
2019-05-22T18:41:24.182Z,4.53
2019-05-22T18:46:27.591Z,3.03
2019-05-22T18:51:31.159Z,4.47
2019-05-22T18:56:34.659Z,2.80
2019-05-22T19:01:38.087Z,3.30
2019-05-22T19:06:41.757Z,3.07
2019-05-22T19:11:45.364Z,3.73
2019-05-22T19:16:49.068Z,3.57
2019-05-22T19:21:52.848Z,3.73
2019-05-22T19:26:56.412Z,3.07
2019-05-22T19:31:59.983Z,3.00
2019-05-22T19:37:03.872Z,3.50
2019-05-22T19:42:07.946Z,3.20
2019-05-22T19:47:12.225Z,3.80
2019-05-22T19:52:22.087Z,4.10
2019-05-22T19:57:23.240Z,3.20
2019-05-22T20:02:27.531Z,4.67
2019-05-22T20:07:32.237Z,3.73
2019-05-22T20:12:37.224Z,4.77
2019-05-22T20:17:41.088Z,5.10
2019-05-22T20:22:45.756Z,4.57
2019-05-22T20:27:49.247Z,4.77
2019-05-22T20:32:52.777Z,6.20
2019-05-22T20:38:00.154Z,7.20
2019-05-22T20:43:01.815Z,5.97
2019-05-22T20:48:08.076Z,5.60
2019-05-22T20:53:14.403Z,5.87
2019-05-22T20:58:20.126Z,6.63
2019-05-22T21:03:25.867Z,5.17
2019-05-22T21:08:30.798Z,5.17
2019-05-22T21:13:35.432Z,5.27
2019-05-22T21:18:40.825Z,6.27
2019-05-22T21:23:44.618Z,7.80
2019-05-22T21:28:48.485Z,5.67
2019-05-22T21:33:55.974Z,6.33
2019-05-22T21:39:00.423Z,8.27
2019-05-22T21:44:04.398Z,6.53
2019-05-22T21:49:09.428Z,7.33
2019-05-22T21:54:13.458Z,7.07
2019-05-22T21:59:20.452Z,7.30
2019-05-22T22:04:26.773Z,8.20
2019-05-22T22:09:30.274Z,9.03
2019-05-22T22:14:36.574Z,7.70
2019-05-22T22:19:40.930Z,8.17
2019-05-22T22:24:44.993Z,8.60
2019-05-22T22:29:48.984Z,6.77
2019-05-22T22:34:54.689Z,6.93
2019-05-22T22:39:59.785Z,8.80
2019-05-22T22:45:07.638Z,8.30
2019-05-22T22:50:13.260Z,8.57
2019-05-22T22:55:18.978Z,8.63
2019-05-22T23:00:35.010Z,10.47
2019-05-22T23:05:39.699Z,8.83
2019-05-22T23:10:44.651Z,10.40
2019-05-22T23:15:50.000Z,10.73
2019-05-22T23:20:53.297Z,9.90
2019-05-22T23:25:56.739Z,9.73
2019-05-22T23:31:00.945Z,9.87
2019-05-22T23:36:05.884Z,8.27
2019-05-22T23:41:10.249Z,10.80
2019-05-22T23:46:14.917Z,10.53
2019-05-22T23:51:18.920Z,10.60
2019-05-22T23:56:22.595Z,9.37
